sensor_id;sensor_type;location;lat;lon;timestamp;pressure;altitude;pressure_sealevel;temperature;humidity
79127;BME280;68528;48.814;8.904;2023-05-07T00:00:46;96331.38;;;10.14;80.20
79127;BME280;68528;48.814;8.904;2023-05-07T00:03:11;96335.34;;;10.16;80.07
79127;BME280;68528;48.814;8.904;2023-05-07T00:05:39;96330.69;;;10.17;79.52
79127;BME280;68528;48.814;8.904;2023-05-07T00:08:04;96336.56;;;10.19;80.46
79127;BME280;68528;48.814;8.904;2023-05-07T00:11:03;96333.34;;;10.13;79.93
79127;BME280;68528;48.814;8.904;2023-05-07T00:27:24;96322.75;;;9.93;82.11
79127;BME280;68528;48.814;8.904;2023-05-07T00:29:50;96324.28;;;9.90;82.64
79127;BME280;68528;48.814;8.904;2023-05-07T00:32:15;96317.06;;;9.82;82.63
79127;BME280;68528;48.814;8.904;2023-05-07T00:34:41;96315.56;;;9.85;81.87
79127;BME280;68528;48.814;8.904;2023-05-07T00:37:06;96320.66;;;9.86;81.84
79127;BME280;68528;48.814;8.904;2023-05-07T00:39:34;96310.53;;;9.87;81.69
79127;BME280;68528;48.814;8.904;2023-05-07T00:42:01;96306.22;;;9.86;81.78
79127;BME280;68528;48.814;8.904;2023-05-07T00:44:28;96308.97;;;9.86;82.49
79127;BME280;68528;48.814;8.904;2023-05-07T00:46:53;96305.78;;;9.84;81.82
79127;BME280;68528;48.814;8.904;2023-05-07T00:49:20;96316.72;;;9.84;80.63
79127;BME280;68528;48.814;8.904;2023-05-07T00:51:45;96317.59;;;9.88;81.16
79127;BME280;68528;48.814;8.904;2023-05-07T00:54:13;96307.00;;;9.86;80.75
79127;BME280;68528;48.814;8.904;2023-05-07T00:56:39;96309.66;;;9.83;80.81
79127;BME280;68528;48.814;8.904;2023-05-07T00:59:05;96312.03;;;9.84;81.48
79127;BME280;68528;48.814;8.904;2023-05-07T01:01:31;96313.69;;;9.89;81.70
79127;BME280;68528;48.814;8.904;2023-05-07T01:04:40;96296.31;;;9.78;81.45
79127;BME280;68528;48.814;8.904;2023-05-07T07:15:40;96332.44;;;18.30;56.55
79127;BME280;68528;48.814;8.904;2023-05-07T07:23:17;96336.78;;;18.01;59.41
79127;BME280;68528;48.814;8.904;2023-05-07T07:45:03;96349.78;;;18.04;58.65
79127;BME280;68528;48.814;8.904;2023-05-07T07:51:07;96358.88;;;18.04;60.29
79127;BME280;68528;48.814;8.904;2023-05-07T07:53:33;96356.38;;;18.17;58.13
79127;BME280;68528;48.814;8.904;2023-05-07T07:55:58;96357.97;;;17.81;59.35
79127;BME280;68528;48.814;8.904;2023-05-07T07:58:27;96354.72;;;18.23;58.57
79127;BME280;68528;48.814;8.904;2023-05-07T08:00:52;96356.19;;;18.31;58.86
79127;BME280;68528;48.814;8.904;2023-05-07T08:03:21;96340.69;;;18.67;57.87
79127;BME280;68528;48.814;8.904;2023-05-07T10:08:35;96333.13;;;20.66;47.41
79127;BME280;68528;48.814;8.904;2023-05-07T10:33:22;96328.03;;;21.32;49.69
79127;BME280;68528;48.814;8.904;2023-05-07T22:44:53;96690.41;;;13.12;90.93
79127;BME280;68528;48.814;8.904;2023-05-07T22:47:46;96686.50;;;13.13;90.63
79127;BME280;68528;48.814;8.904;2023-05-07T23:31:31;96673.69;;;12.68;94.00
79127;BME280;68528;48.814;8.904;2023-05-07T23:34:02;96683.03;;;12.63;94.09
79127;BME280;68528;48.814;8.904;2023-05-07T23:36:28;96680.63;;;12.58;94.18
79127;BME280;68528;48.814;8.904;2023-05-07T23:38:59;96677.16;;;12.65;94.04
79127;BME280;68528;48.814;8.904;2023-05-07T23:41:27;96674.06;;;12.67;93.92
79127;BME280;68528;48.814;8.904;2023-05-07T23:51:17;96680.59;;;12.85;92.77
79127;BME280;68528;48.814;8.904;2023-05-07T23:54:08;96677.00;;;12.81;92.97
